Time;durP1;ratioP1;P1;durP2;ratioP2;P2;SDS_P1;SDS_P2;PMS_P1;PMS_P2;Temp;Humidity;BMP_temperature;BMP_pressure;BME280_temperature;BME280_humidity;BME280_pressure;Samples;Min_cycle;Max_cycle;Signal;HPM_P1;HPM_P2
2023/08/01 00:00:11;;;;;;;6.73;3.90;;;;;;;22.30;58.09;96487.50;5076458;28;20182;-68
2023/08/01 00:02:38;;;;;;;4.10;3.33;;;;;;;22.35;58.38;96482.22;5076393;28;20190;-69
2023/08/01 00:05:04;;;;;;;9.73;3.53;;;;;;;22.41;57.99;96473.28;5078953;28;20205;-68
2023/08/01 00:07:29;;;;;;;5.00;3.73;;;;;;;22.47;57.54;96468.81;5076153;28;20455;-69
2023/08/01 00:09:55;;;;;;;4.03;3.57;;;;;;;22.53;57.92;96473.97;5075084;28;20463;-68
2023/08/01 00:12:20;;;;;;;6.13;3.60;;;;;;;22.59;57.66;96466.84;5082807;28;20202;-69
2023/08/01 00:14:46;;;;;;;4.87;3.20;;;;;;;22.62;57.52;96460.19;5078357;28;20612;-68
2023/08/01 00:17:11;;;;;;;4.80;3.70;;;;;;;22.65;57.69;96454.34;5083018;28;20205;-69
2023/08/01 00:19:37;;;;;;;4.03;3.30;;;;;;;22.67;57.66;96449.56;5081866;28;20265;-69
2023/08/01 00:22:02;;;;;;;3.43;3.10;;;;;;;22.71;57.78;96453.34;5076036;28;20211;-69
2023/08/01 00:24:28;;;;;;;4.10;3.70;;;;;;;22.70;57.34;96451.72;5080310;28;20196;-71
2023/08/01 00:26:55;;;;;;;4.17;3.50;;;;;;;22.69;57.40;96455.44;5080217;28;20329;-68
2023/08/01 00:29:21;;;;;;;9.23;3.20;;;;;;;22.70;57.35;96457.06;5075694;28;20276;-68
2023/08/01 00:31:46;;;;;;;4.40;3.33;;;;;;;22.70;57.33;96435.72;5081510;28;20428;-69
2023/08/01 00:34:12;;;;;;;5.77;3.80;;;;;;;22.68;57.33;96433.28;5086547;28;20779;-69
2023/08/01 00:36:37;;;;;;;4.77;3.90;;;;;;;22.60;57.82;96424.91;5079884;28;20237;-69
2023/08/01 00:39:03;;;;;;;7.93;3.60;;;;;;;22.63;57.74;96425.22;5081089;28;20277;-69
2023/08/01 00:41:28;;;;;;;5.30;3.57;;;;;;;22.60;57.51;96423.06;5087156;28;20290;-69
2023/08/01 00:43:53;;;;;;;4.73;3.43;;;;;;;22.63;57.72;96421.75;5079153;28;20393;-69
2023/08/01 00:46:19;;;;;;;7.67;3.73;;;;;;;22.67;57.85;96425.53;5085470;28;20228;-69
2023/08/01 00:48:45;;;;;;;4.77;3.27;;;;;;;22.66;57.45;96416.72;5086347;28;20689;-67
2023/08/01 00:51:12;;;;;;;7.37;3.70;;;;;;;22.67;57.27;96413.00;5085625;28;20197;-69
2023/08/01 00:53:37;;;;;;;5.40;3.27;;;;;;;22.67;57.18;96412.19;5088391;28;20424;-71
2023/08/01 00:56:03;;;;;;;5.47;3.80;;;;;;;22.68;57.34;96411.13;5092768;28;20442;-69
2023/08/01 00:58:28;;;;;;;5.00;3.37;;;;;;;22.70;57.19;96404.50;5089933;28;20220;-68
2023/08/01 01:00:55;;;;;;;6.00;3.23;;;;;;;22.68;56.77;96403.13;5088074;28;20185;-70
2023/08/01 01:03:20;;;;;;;5.30;3.30;;;;;;;22.63;56.86;96398.50;5090322;28;20564;-69
2023/08/01 01:05:56;;;;;;;5.87;3.13;;;;;;;22.64;56.79;96392.13;5092559;28;20454;-70
2023/08/01 01:08:21;;;;;;;4.03;3.33;;;;;;;22.52;57.08;96384.25;5089236;28;20279;-68
2023/08/01 01:10:47;;;;;;;6.40;3.77;;;;;;;22.46;57.05;96392.44;5090425;28;20541;-69
2023/08/01 01:13:12;;;;;;;5.70;3.40;;;;;;;22.42;56.99;96386.81;5089756;28;20277;-68
2023/08/01 01:15:38;;;;;;;4.80;3.30;;;;;;;22.30;56.90;96383.41;5084261;28;20301;-68
2023/08/01 01:18:03;;;;;;;8.17;3.53;;;;;;;22.37;56.87;96374.16;5086321;28;20882;-68
2023/08/01 01:20:35;;;;;;;6.80;3.70;;;;;;;22.39;57.02;96365.91;5087547;28;20232;-67
2023/08/01 01:23:01;;;;;;;5.20;3.83;;;;;;;22.42;56.77;96368.13;5087519;28;20192;-67
2023/08/01 01:25:27;;;;;;;5.77;3.30;;;;;;;22.44;56.91;96379.34;5088835;28;20466;-68
2023/08/01 01:27:53;;;;;;;5.27;3.57;;;;;;;22.23;57.00;96375.59;5078441;28;20436;-68
2023/08/01 01:30:19;;;;;;;3.83;3.20;;;;;;;22.09;58.36;96349.28;5085388;28;20458;-69
2023/08/01 01:32:45;;;;;;;5.27;3.87;;;;;;;22.21;58.28;96351.03;5086784;28;20431;-68
2023/08/01 01:35:10;;;;;;;5.47;3.43;;;;;;;22.17;58.83;96340.03;5086957;28;20233;-67
2023/08/01 01:37:36;;;;;;;5.30;3.77;;;;;;;22.14;58.62;96348.53;5085962;28;20285;-69
2023/08/01 01:40:01;;;;;;;5.43;3.63;;;;;;;21.98;59.57;96338.72;5088380;28;20330;-68
2023/08/01 01:42:27;;;;;;;6.50;3.93;;;;;;;22.08;59.59;96325.50;5093108;28;20190;-67
2023/08/01 01:44:52;;;;;;;6.63;3.63;;;;;;;22.12;59.37;96321.28;5087398;28;20221;-70
2023/08/01 01:47:18;;;;;;;5.60;3.40;;;;;;;22.08;59.82;96322.84;5079586;28;20264;-72
2023/08/01 01:49:43;;;;;;;4.03;3.47;;;;;;;22.11;59.52;96303.66;5087850;28;20181;-69
2023/08/01 01:52:09;;;;;;;7.10;3.67;;;;;;;22.01;60.40;96298.22;5082483;28;20199;-69
2023/08/01 01:54:34;;;;;;;4.30;3.50;;;;;;;22.02;60.15;96297.16;5091912;28;20266;-70
2023/08/01 01:56:59;;;;;;;3.90;3.50;;;;;;;22.06;60.04;96298.25;5092321;28;20208;-69
2023/08/01 01:59:25;;;;;;;3.50;3.20;;;;;;;22.07;60.11;96289.19;5090993;28;20216;-70
2023/08/01 02:01:50;;;;;;;5.03;3.53;;;;;;;22.13;60.02;96285.56;5096394;28;20268;-71
2023/08/01 02:04:16;;;;;;;6.23;3.50;;;;;;;22.14;59.94;96284.50;5096326;28;20217;-70
2023/08/01 02:06:41;;;;;;;4.90;3.70;;;;;;;22.14;59.95;96281.84;5101116;28;20290;-71
2023/08/01 02:09:07;;;;;;;4.83;3.77;;;;;;;22.14;59.97;96289.03;5090341;28;20212;-71
2023/08/01 02:11:32;;;;;;;6.17;3.70;;;;;;;22.02;60.31;96291.81;5086732;28;20201;-71
2023/08/01 02:13:58;;;;;;;4.00;3.47;;;;;;;22.05;60.10;96286.00;5093342;28;20297;-70
2023/08/01 02:16:23;;;;;;;9.77;3.40;;;;;;;22.00;60.00;96278.72;5091732;28;20210;-71
2023/08/01 02:18:49;;;;;;;6.23;3.30;;;;;;;21.99;60.05;96270.97;5087766;28;20201;-69
2023/08/01 02:21:14;;;;;;;6.37;3.47;;;;;;;22.04;59.97;96279.06;5080293;28;20182;-69
2023/08/01 02:23:39;;;;;;;7.63;3.97;;;;;;;21.98;60.32;96290.69;5090404;28;20207;-70
2023/08/01 02:26:07;;;;;;;5.20;3.90;;;;;;;22.04;60.06;96273.72;5091022;28;20231;-68
2023/08/01 02:28:32;;;;;;;5.67;3.77;;;;;;;22.08;60.01;96277.47;5081328;28;20195;-70
2023/08/01 02:30:58;;;;;;;5.30;3.80;;;;;;;22.11;59.87;96284.19;5087654;28;20456;-69
2023/08/01 02:33:23;;;;;;;9.20;3.67;;;;;;;22.14;59.73;96287.16;5091548;28;20208;-69
2023/08/01 02:35:49;;;;;;;5.83;3.90;;;;;;;22.14;59.52;96295.19;5092542;28;20228;-69
2023/08/01 02:38:14;;;;;;;7.27;3.87;;;;;;;22.12;59.22;96297.28;5094509;28;20188;-70
2023/08/01 02:40:39;;;;;;;4.13;3.60;;;;;;;22.15;59.23;96295.97;5085712;28;20182;-70
2023/08/01 02:43:05;;;;;;;4.17;3.10;;;;;;;22.14;59.31;96297.03;5088246;28;20680;-69
2023/08/01 02:45:30;;;;;;;6.47;3.90;;;;;;;22.17;59.16;96299.19;5090410;28;20650;-70
2023/08/01 02:47:56;;;;;;;4.10;3.40;;;;;;;22.19;58.82;96292.56;5092352;28;20616;-70
2023/08/01 02:50:21;;;;;;;7.10;4.00;;;;;;;22.19;58.92;96291.75;5084701;28;20236;-70
2023/08/01 02:52:47;;;;;;;4.00;3.27;;;;;;;22.17;59.26;96281.34;5090868;28;20232;-70
2023/08/01 02:55:12;;;;;;;5.73;3.70;;;;;;;22.17;59.12;96267.19;5088413;28;20213;-70
2023/08/01 02:57:37;;;;;;;4.00;3.20;;;;;;;22.11;59.38;96277.00;5089849;28;20701;-70
2023/08/01 03:00:05;;;;;;;7.27;3.70;;;;;;;22.03;59.47;96272.91;5090660;28;20559;-70
2023/08/01 03:02:31;;;;;;;5.23;4.00;;;;;;;22.05;59.63;96278.00;5092717;28;20291;-70
2023/08/01 03:04:57;;;;;;;7.07;3.80;;;;;;;22.08;59.31;96264.16;5098652;28;20455;-69
2023/08/01 03:07:22;;;;;;;5.20;3.60;;;;;;;22.08;59.50;96269.47;5090094;28;20206;-71
2023/08/01 03:09:47;;;;;;;5.37;3.37;;;;;;;22.07;59.54;96267.88;5086542;28;20214;-71
2023/08/01 03:12:13;;;;;;;4.57;3.57;;;;;;;22.12;58.98;96257.25;5094203;28;20727;-69
2023/08/01 03:14:41;;;;;;;5.97;3.90;;;;;;;22.08;59.02;96251.63;5089653;28;20737;-69
2023/08/01 03:17:08;;;;;;;4.50;3.63;;;;;;;22.11;59.36;96250.31;5090221;28;20217;-70
2023/08/01 03:19:33;;;;;;;6.67;4.00;;;;;;;22.16;58.92;96250.38;5085760;28;21043;-69
2023/08/01 03:22:00;;;;;;;4.67;3.37;;;;;;;22.13;59.18;96242.88;5092490;28;20514;-69
2023/08/01 03:24:25;;;;;;;6.60;3.87;;;;;;;22.16;58.95;96244.22;5064419;28;20263;-72
2023/08/01 03:26:50;;;;;;;5.13;3.60;;;;;;;22.16;58.92;96250.38;5084854;28;20443;-70
2023/08/01 03:29:16;;;;;;;3.87;3.50;;;;;;;22.14;58.83;96247.16;5087611;28;20714;-68
2023/08/01 03:31:41;;;;;;;4.13;3.73;;;;;;;22.10;58.92;96259.38;5088626;28;20281;-69
2023/08/01 03:34:08;;;;;;;5.40;3.50;;;;;;;22.13;58.76;96256.22;5085450;28;20281;-70
2023/08/01 03:36:34;;;;;;;6.47;3.93;;;;;;;22.13;58.45;96261.53;5084266;28;20292;-69
2023/08/01 03:39:00;;;;;;;5.00;3.53;;;;;;;21.99;58.51;96260.31;5088904;28;20450;-69
2023/08/01 03:41:25;;;;;;;4.43;3.80;;;;;;;22.11;58.48;96262.88;5089197;28;20936;-70
2023/08/01 03:43:50;;;;;;;3.97;3.00;;;;;;;22.08;58.40;96262.28;5084737;28;20624;-68
2023/08/01 03:46:16;;;;;;;5.50;3.77;;;;;;;22.00;58.57;96270.72;5088807;28;20221;-68
2023/08/01 03:48:43;;;;;;;6.10;3.90;;;;;;;22.03;58.47;96272.09;5088414;28;20242;-70
2023/08/01 03:51:08;;;;;;;8.53;3.40;;;;;;;21.94;58.34;96263.72;5090532;28;20236;-69
2023/08/01 03:53:34;;;;;;;5.67;3.77;;;;;;;22.06;58.36;96264.41;5087244;28;20439;-70
2023/08/01 03:55:59;;;;;;;3.87;3.47;;;;;;;22.15;58.05;96262.09;5086760;28;20233;-68
2023/08/01 03:58:24;;;;;;;6.20;3.33;;;;;;;22.17;58.17;96267.19;5082242;28;20196;-68
2023/08/01 04:00:50;;;;;;;8.03;3.23;;;;;;;22.17;58.08;96261.84;5094840;28;20189;-68
2023/08/01 04:03:16;;;;;;;4.80;3.37;;;;;;;22.18;57.96;96252.78;5095934;28;20204;-69
2023/08/01 04:05:41;;;;;;;5.57;3.93;;;;;;;21.99;58.72;96262.97;5085909;28;20223;-69
2023/08/01 04:08:06;;;;;;;4.40;3.67;;;;;;;21.92;58.57;96252.50;5090099;28;20650;-69
2023/08/01 04:10:32;;;;;;;7.07;3.73;;;;;;;21.83;59.06;96241.44;5094330;28;20297;-67
2023/08/01 04:12:57;;;;;;;3.67;3.23;;;;;;;21.94;59.07;96216.50;5085821;28;20726;-68
2023/08/01 04:15:23;;;;;;;5.00;3.40;;;;;;;22.02;58.71;96179.78;5091310;28;20233;-70
2023/08/01 04:17:48;;;;;;;7.20;3.90;;;;;;;21.94;59.04;96175.72;5083273;28;20213;-69
2023/08/01 04:20:13;;;;;;;7.33;3.33;;;;;;;21.86;59.66;96176.97;5086892;28;20222;-69
2023/08/01 04:22:39;;;;;;;6.53;3.30;;;;;;;21.67;60.07;96163.16;5087301;28;20281;-70
2023/08/01 04:25:05;;;;;;;4.50;3.60;;;;;;;21.78;59.99;96150.75;5083986;28;20670;-69
2023/08/01 04:27:30;;;;;;;6.50;3.40;;;;;;;21.62;60.17;96144.41;5082286;28;20202;-68
2023/08/01 04:29:56;;;;;;;9.00;3.33;;;;;;;21.54;60.45;96118.19;5084414;28;20205;-69
2023/08/01 04:32:21;;;;;;;4.07;3.37;;;;;;;21.50;60.96;96088.56;5088082;28;20203;-68
2023/08/01 04:34:47;;;;;;;4.20;3.30;;;;;;;21.53;60.87;96065.94;5085688;28;20213;-68
2023/08/01 04:37:12;;;;;;;5.60;3.37;;;;;;;21.61;60.61;96057.53;5088002;28;20596;-69
2023/08/01 04:39:37;;;;;;;3.50;2.90;;;;;;;21.59;60.41;96048.94;5094601;28;20186;-68
2023/08/01 04:42:03;;;;;;;5.60;3.80;;;;;;;21.58;60.17;96053.47;5088975;28;20272;-69
2023/08/01 04:44:30;;;;;;;4.93;3.40;;;;;;;21.37;60.29;96020.44;5084495;28;20603;-69
2023/08/01 04:46:55;;;;;;;8.30;3.87;;;;;;;21.29;60.77;96016.41;5084416;28;20583;-70
2023/08/01 04:49:21;;;;;;;3.37;3.00;;;;;;;21.53;59.91;96077.41;5090040;28;20440;-70
2023/08/01 04:51:48;;;;;;;5.90;3.47;;;;;;;21.55;60.05;96074.47;5086891;28;20205;-70
2023/08/01 04:54:14;;;;;;;6.67;3.30;;;;;;;21.32;59.80;96085.16;5096743;28;20605;-68
2023/08/01 04:56:39;;;;;;;7.87;3.40;;;;;;;21.42;59.52;96081.00;5086980;28;20506;-68
2023/08/01 04:59:05;;;;;;;4.57;3.30;;;;;;;21.64;59.08;96089.00;5093705;28;20185;-71
2023/08/01 05:01:31;;;;;;;7.50;3.30;;;;;;;21.76;58.71;96088.88;5091627;28;20689;-71
2023/08/01 05:03:57;;;;;;;7.13;3.80;;;;;;;21.80;58.24;96092.63;5088003;28;20192;-69
2023/08/01 05:06:22;;;;;;;6.67;3.43;;;;;;;21.82;58.23;96095.84;5080229;28;20210;-69
2023/08/01 05:08:48;;;;;;;5.80;3.27;;;;;;;21.86;58.03;96112.97;5085353;28;21041;-70
2023/08/01 05:11:13;;;;;;;4.10;3.10;;;;;;;21.90;58.00;96119.41;5082662;28;20301;-71
2023/08/01 05:13:39;;;;;;;5.40;3.60;;;;;;;21.91;57.75;96129.03;5086641;28;20284;-70
2023/08/01 05:16:04;;;;;;;6.87;3.40;;;;;;;21.95;57.65;96142.66;5087609;28;20247;-70
2023/08/01 05:18:29;;;;;;;3.73;3.13;;;;;;;21.97;57.37;96135.22;5088699;28;20236;-69
2023/08/01 05:20:55;;;;;;;6.63;3.70;;;;;;;21.94;57.33;96119.72;5087712;28;20212;-69
2023/08/01 05:23:20;;;;;;;7.60;4.10;;;;;;;22.02;56.87;96110.44;5087307;28;20276;-69
2023/08/01 05:25:46;;;;;;;11.20;3.90;;;;;;;21.99;56.22;96116.28;5082450;28;20271;-69
2023/08/01 05:28:12;;;;;;;6.70;3.67;;;;;;;22.09;56.38;96116.38;5095672;28;20270;-69
2023/08/01 05:30:37;;;;;;;7.70;4.20;;;;;;;22.14;56.02;96145.78;5087562;28;20220;-70
2023/08/01 05:33:03;;;;;;;8.27;4.30;;;;;;;22.12;56.04;96155.88;5088235;28;20201;-69
2023/08/01 05:35:28;;;;;;;10.00;4.20;;;;;;;22.17;55.80;96155.97;5092240;28;20209;-70
2023/08/01 05:37:53;;;;;;;7.73;3.60;;;;;;;22.22;55.69;96157.88;5089280;28;20276;-69
2023/08/01 05:40:19;;;;;;;4.90;3.60;;;;;;;22.21;54.98;96146.38;5090582;28;20177;-69
2023/08/01 05:42:44;;;;;;;7.40;3.57;;;;;;;22.22;55.38;96139.97;5090493;28;20208;-73
2023/08/01 05:45:11;;;;;;;4.63;4.13;;;;;;;22.27;54.83;96133.88;5093525;28;20223;-69
2023/08/01 05:47:37;;;;;;;4.60;3.57;;;;;;;22.28;54.75;96130.16;5084576;28;20197;-70
2023/08/01 05:50:02;;;;;;;5.17;4.10;;;;;;;22.31;54.96;96131.50;5086924;28;20447;-68
2023/08/01 05:52:27;;;;;;;6.27;3.63;;;;;;;22.27;54.40;96138.41;5088061;28;20197;-69
2023/08/01 05:54:53;;;;;;;6.07;3.67;;;;;;;22.32;54.41;96141.13;5088450;28;20291;-69
2023/08/01 05:57:19;;;;;;;4.67;4.00;;;;;;;22.29;54.01;96150.44;5092925;28;20667;-69
2023/08/01 05:59:44;;;;;;;5.23;3.70;;;;;;;22.27;54.25;96149.88;5088356;28;20635;-69
2023/08/01 06:02:10;;;;;;;8.30;3.93;;;;;;;22.26;54.27;96156.28;5086423;28;20223;-70
2023/08/01 06:04:35;;;;;;;8.50;4.10;;;;;;;22.25;53.87;96160.00;5086786;28;20304;-69
2023/08/01 06:07:01;;;;;;;6.40;4.20;;;;;;;22.25;54.31;96163.50;5088821;28;20275;-69
2023/08/01 06:09:26;;;;;;;7.70;4.07;;;;;;;22.25;54.08;96160.81;5075065;28;20217;-69
2023/08/01 06:11:51;;;;;;;8.30;4.17;;;;;;;22.11;53.52;96164.94;5078628;28;20229;-70
2023/08/01 06:14:17;;;;;;;3.80;3.30;;;;;;;22.16;53.52;96165.00;5087648;28;20241;-68
2023/08/01 06:16:43;;;;;;;6.80;4.13;;;;;;;22.14;53.42;96168.97;5074745;28;20213;-70
2023/08/01 06:19:08;;;;;;;6.63;3.90;;;;;;;22.21;53.20;96161.59;5076466;28;20658;-70
2023/08/01 06:21:34;;;;;;;6.83;3.80;;;;;;;22.20;53.44;96165.31;5076062;28;20824;-70
2023/08/01 06:23:59;;;;;;;6.50;3.67;;;;;;;22.29;53.75;96168.34;5075825;28;20182;-70
2023/08/01 06:26:25;;;;;;;6.10;4.20;;;;;;;22.16;53.95;96167.69;5080628;28;20237;-70
2023/08/01 06:28:52;;;;;;;8.30;4.50;;;;;;;21.92;54.48;96167.97;5078945;28;20200;-69
2023/08/01 06:31:19;;;;;;;8.63;4.57;;;;;;;22.08;54.10;96178.78;5078939;28;20674;-69
2023/08/01 06:33:45;;;;;;;6.83;5.00;;;;;;;22.08;53.86;96194.78;5078850;28;20452;-71
2023/08/01 06:36:10;;;;;;;6.73;4.87;;;;;;;21.86;53.80;96178.84;5084924;28;20542;-69
2023/08/01 06:38:36;;;;;;;7.60;4.60;;;;;;;21.91;53.51;96189.53;5084864;28;20185;-69
2023/08/01 06:41:01;;;;;;;5.10;4.53;;;;;;;22.01;53.50;96183.53;5088521;28;20268;-69
2023/08/01 06:43:26;;;;;;;5.37;3.90;;;;;;;22.07;53.34;96199.34;5090270;28;20227;-70
2023/08/01 06:45:52;;;;;;;9.70;5.77;;;;;;;21.85;54.06;96195.88;5084757;28;20690;-70
2023/08/01 06:48:17;;;;;;;6.20;5.00;;;;;;;21.97;54.38;96225.06;5088746;28;20657;-69
2023/08/01 06:50:43;;;;;;;11.23;6.00;;;;;;;21.92;54.50;96223.97;5082725;28;20280;-70
2023/08/01 06:53:08;;;;;;;9.37;5.60;;;;;;;21.77;55.94;96213.13;5085501;28;20189;-71
2023/08/01 06:55:34;;;;;;;7.87;5.13;;;;;;;21.54;57.41;96201.63;5088533;28;20218;-69
2023/08/01 06:58:00;;;;;;;10.50;6.03;;;;;;;21.54;58.00;96179.47;5084627;28;20732;-70
2023/08/01 07:00:25;;;;;;;7.30;5.73;;;;;;;21.55;57.40;96181.09;5082291;28;20216;-71
2023/08/01 07:02:50;;;;;;;11.37;5.40;;;;;;;21.59;57.40;96183.03;5090959;28;20190;-70
2023/08/01 07:05:16;;;;;;;8.50;6.07;;;;;;;21.55;58.09;96181.88;5091101;28;20630;-70
2023/08/01 07:07:41;;;;;;;9.50;5.80;;;;;;;21.49;58.04;96183.69;5085836;28;20258;-69
2023/08/01 07:10:07;;;;;;;8.47;6.00;;;;;;;21.62;58.00;96187.88;5082793;28;20296;-69
2023/08/01 07:12:33;;;;;;;9.53;5.70;;;;;;;21.59;58.17;96187.56;5087076;28;20251;-71
2023/08/01 07:14:58;;;;;;;7.30;5.60;;;;;;;21.54;57.71;96182.97;5080848;28;20289;-71
2023/08/01 07:17:23;;;;;;;7.10;5.43;;;;;;;21.29;58.18;96197.56;5082106;28;20192;-70
2023/08/01 07:19:49;;;;;;;10.13;6.33;;;;;;;21.55;57.36;96187.22;5081508;28;20193;-70
2023/08/01 07:22:14;;;;;;;8.50;5.50;;;;;;;21.59;57.95;96183.03;5089425;28;20182;-70
2023/08/01 07:24:40;;;;;;;6.93;5.83;;;;;;;21.67;57.61;96184.47;5081073;28;20708;-71
2023/08/01 07:27:05;;;;;;;7.67;5.40;;;;;;;21.62;57.90;96201.22;5087669;28;20194;-71
2023/08/01 07:29:31;;;;;;;10.23;6.10;;;;;;;21.62;57.68;96211.88;5088152;28;20194;-71
2023/08/01 07:31:56;;;;;;;8.33;5.50;;;;;;;21.42;58.54;96219.59;5090171;28;20346;-70
2023/08/01 07:34:22;;;;;;;7.57;4.97;;;;;;;21.52;58.51;96233.03;5089751;28;20277;-71
2023/08/01 07:36:51;;;;;;;5.97;5.33;;;;;;;21.46;58.75;96226.84;5093365;28;20778;-70
2023/08/01 07:39:16;;;;;;;6.50;4.77;;;;;;;21.24;59.45;96224.13;5088631;28;20602;-70
2023/08/01 07:41:42;;;;;;;8.47;4.63;;;;;;;21.38;59.83;96223.78;5088720;28;20497;-71
2023/08/01 07:44:07;;;;;;;7.10;4.93;;;;;;;21.28;61.13;96235.91;5083120;28;20221;-70
2023/08/01 07:46:33;;;;;;;11.30;5.17;;;;;;;21.28;61.33;96241.25;5087809;28;20292;-71
2023/08/01 07:48:59;;;;;;;5.53;4.70;;;;;;;21.25;61.36;96243.56;5089112;28;20692;-71
2023/08/01 07:51:25;;;;;;;5.10;4.40;;;;;;;21.25;61.80;96236.41;5081669;28;20296;-70
2023/08/01 07:53:52;;;;;;;8.90;4.80;;;;;;;20.76;64.09;96233.50;5086808;28;20792;-70
2023/08/01 07:56:19;;;;;;;10.67;4.73;;;;;;;21.07;63.26;96231.31;5083285;28;20955;-69
2023/08/01 07:58:44;;;;;;;6.37;4.53;;;;;;;20.88;64.71;96223.59;5085287;28;20778;-70
2023/08/01 08:01:09;;;;;;;4.97;3.77;;;;;;;20.99;63.84;96228.03;5085282;28;20427;-70
2023/08/01 08:03:35;;;;;;;4.63;3.77;;;;;;;20.90;64.63;96245.47;5087694;28;20189;-70
2023/08/01 08:06:01;;;;;;;4.53;3.77;;;;;;;20.91;65.03;96220.44;5080130;28;20786;-70
2023/08/01 08:08:26;;;;;;;5.40;3.57;;;;;;;20.97;64.96;96216.81;5079226;28;20191;-69
2023/08/01 08:10:52;;;;;;;5.17;3.50;;;;;;;21.00;65.29;96218.97;5085517;28;20456;-70
2023/08/01 08:13:17;;;;;;;3.97;2.97;;;;;;;21.13;64.70;96219.69;5081697;28;20201;-71
2023/08/01 08:15:43;;;;;;;4.33;3.20;;;;;;;21.01;65.27;96217.94;5089828;28;20205;-69
2023/08/01 08:18:09;;;;;;;4.77;3.30;;;;;;;20.88;66.13;96210.28;5083367;28;20186;-70
2023/08/01 08:20:42;;;;;;;4.10;3.13;;;;;;;21.04;65.42;96213.97;5089145;28;20635;-70
2023/08/01 08:23:07;;;;;;;5.00;3.30;;;;;;;20.92;66.47;96208.72;5079643;28;20420;-71
2023/08/01 08:25:33;;;;;;;3.60;2.80;;;;;;;21.07;65.96;96207.34;5079557;28;20540;-70
2023/08/01 08:27:58;;;;;;;5.60;2.67;;;;;;;21.15;65.79;96204.28;5083260;28;20239;-71
2023/08/01 08:30:24;;;;;;;3.70;2.97;;;;;;;21.21;65.73;96203.28;5083370;28;20336;-69
2023/08/01 08:32:50;;;;;;;3.47;2.80;;;;;;;21.25;65.89;96209.75;5076823;28;20204;-69
2023/08/01 08:35:15;;;;;;;3.70;2.97;;;;;;;21.23;66.14;96206.53;5085944;28;20216;-70
2023/08/01 08:37:41;;;;;;;5.57;3.20;;;;;;;21.30;66.29;96212.47;5082108;28;20594;-72
2023/08/01 08:40:07;;;;;;;2.83;2.50;;;;;;;21.42;65.66;96214.25;5084669;28;20186;-69
2023/08/01 08:42:33;;;;;;;3.90;3.17;;;;;;;21.41;65.83;96208.09;5087179;28;20566;-70
2023/08/01 08:45:01;;;;;;;3.27;2.97;;;;;;;21.41;65.71;96204.66;5083346;28;20457;-69
2023/08/01 08:47:28;;;;;;;3.67;2.80;;;;;;;21.48;65.94;96216.72;5089339;28;20423;-71
2023/08/01 08:49:56;;;;;;;3.50;3.20;;;;;;;21.66;65.44;96219.38;5086831;28;20419;-72
2023/08/01 08:52:23;;;;;;;4.80;3.30;;;;;;;21.59;65.23;96219.53;5093022;28;20439;-72
2023/08/01 08:54:49;;;;;;;3.70;2.80;;;;;;;21.57;65.84;96219.75;5084502;28;20950;-71
2023/08/01 08:57:14;;;;;;;6.27;2.70;;;;;;;21.47;66.54;96228.44;5084849;28;20512;-70
2023/08/01 08:59:41;;;;;;;4.37;3.30;;;;;;;21.62;66.32;96214.53;5048017;28;20275;-70
2023/08/01 09:02:06;;;;;;;3.43;2.60;;;;;;;21.71;66.21;96216.75;5057450;28;20191;-70
2023/08/01 09:04:32;;;;;;;5.40;3.10;;;;;;;21.75;66.09;96208.03;5066511;28;20436;-71
2023/08/01 09:07:08;;;;;;;4.67;2.97;;;;;;;21.94;65.78;96208.50;5047857;28;20233;-69
2023/08/01 09:09:34;;;;;;;3.03;2.60;;;;;;;22.00;65.30;96219.25;5077622;28;20209;-71
2023/08/01 09:12:00;;;;;;;4.50;2.73;;;;;;;21.65;66.11;96213.22;5079877;28;20451;-70
2023/08/01 09:14:25;;;;;;;3.73;2.33;;;;;;;21.71;65.81;96219.44;5082263;28;20447;-69
2023/08/01 09:16:50;;;;;;;3.57;2.80;;;;;;;21.81;65.63;96216.88;5083272;28;20206;-71
2023/08/01 09:19:21;;;;;;;5.37;2.90;;;;;;;21.84;65.04;96227.06;5085027;28;20339;-70
2023/08/01 09:21:47;;;;;;;6.40;2.50;;;;;;;21.89;65.05;96221.81;5079514;28;20658;-72
2023/08/01 09:24:19;;;;;;;2.80;2.40;;;;;;;21.83;65.37;96212.13;5080167;28;20981;-70
2023/08/01 09:26:46;;;;;;;11.23;2.60;;;;;;;21.90;65.42;96225.25;5077521;28;20452;-71
2023/08/01 09:29:11;;;;;;;2.33;2.13;;;;;;;21.80;65.48;96220.59;5079993;28;20431;-70
2023/08/01 09:31:39;;;;;;;3.27;2.87;;;;;;;21.88;66.10;96217.53;5081867;28;20837;-70
2023/08/01 09:34:06;;;;;;;2.43;2.23;;;;;;;21.83;66.53;96222.78;5083629;28;20194;-69
2023/08/01 09:36:32;;;;;;;2.10;1.80;;;;;;;22.00;66.09;96229.91;5084535;28;20531;-73
2023/08/01 09:39:03;;;;;;;3.27;2.27;;;;;;;22.07;66.74;96231.34;5081066;28;20440;-71
2023/08/01 09:41:29;;;;;;;2.33;2.00;;;;;;;22.21;65.93;96236.28;5080091;28;20932;-70
2023/08/01 09:43:55;;;;;;;1.60;1.50;;;;;;;22.28;65.33;96239.56;5081132;28;20431;-69
2023/08/01 09:46:20;;;;;;;1.90;1.70;;;;;;;22.39;65.27;96227.13;5088274;28;20490;-69
2023/08/01 09:48:46;;;;;;;2.87;1.60;;;;;;;22.43;65.00;96227.47;5080371;28;20185;-71
2023/08/01 09:51:12;;;;;;;1.60;1.50;;;;;;;22.43;65.01;96246.94;5081451;28;20213;-70
2023/08/01 09:53:52;;;;;;;3.80;1.10;;;;;;;22.51;65.04;96235.81;5082756;28;20198;-69
2023/08/01 09:56:28;;;;;;;1.87;0.97;;;;;;;22.49;64.92;96235.25;5085812;28;20216;-70
2023/08/01 09:58:55;;;;;;;1.70;1.10;;;;;;;22.59;64.05;96228.41;5082833;28;20809;-70
2023/08/01 10:01:24;;;;;;;1.20;1.00;;;;;;;22.61;64.15;96229.78;5081332;28;20924;-72
2023/08/01 10:03:51;;;;;;;1.30;1.00;;;;;;;22.52;64.58;96232.09;5083670;28;20542;-70
2023/08/01 10:06:19;;;;;;;1.93;0.90;;;;;;;22.64;64.02;96250.59;5082870;28;20460;-70
2023/08/01 10:08:45;;;;;;;1.20;0.80;;;;;;;22.57;64.18;96230.50;5087076;28;20423;-73
2023/08/01 10:11:12;;;;;;;3.50;0.90;;;;;;;22.59;63.97;96231.06;5084315;28;20463;-72
2023/08/01 10:13:38;;;;;;;1.10;0.67;;;;;;;22.64;63.61;96236.47;5086036;28;20526;-70
2023/08/01 10:16:05;;;;;;;3.80;1.00;;;;;;;22.31;64.25;96233.72;5082624;28;20520;-70
2023/08/01 10:18:31;;;;;;;1.73;0.87;;;;;;;22.53;64.08;96233.72;5089124;28;20300;-68
2023/08/01 10:20:57;;;;;;;7.60;0.80;;;;;;;22.56;63.80;96237.72;5092016;28;20424;-72
2023/08/01 10:23:23;;;;;;;1.60;0.70;;;;;;;22.48;63.87;96239.00;5083888;28;20438;-69
2023/08/01 10:25:48;;;;;;;1.80;0.80;;;;;;;22.53;63.56;96243.56;5080767;28;20294;-68
2023/08/01 10:28:14;;;;;;;1.50;0.63;;;;;;;22.67;63.36;96249.31;5082833;28;20673;-71
2023/08/01 10:30:39;;;;;;;1.20;0.80;;;;;;;22.78;62.92;96242.19;5090369;28;20204;-68
2023/08/01 10:33:05;;;;;;;1.10;0.70;;;;;;;22.98;63.09;96249.56;5087829;28;20589;-68
2023/08/01 10:35:37;;;;;;;1.20;0.70;;;;;;;23.35;62.88;96237.31;5089269;28;20214;-70
2023/08/01 10:38:04;;;;;;;0.90;0.57;;;;;;;23.31;61.58;96237.81;5087624;28;20558;-68
2023/08/01 10:40:43;;;;;;;3.17;0.93;;;;;;;23.45;61.19;96242.69;5090819;28;20431;-68
2023/08/01 10:43:21;;;;;;;1.00;0.70;;;;;;;23.99;61.49;96243.53;5089812;28;20887;-70
2023/08/01 10:45:47;;;;;;;1.67;1.00;;;;;;;24.48;60.15;96245.00;5090365;28;20804;-71
2023/08/01 10:48:13;;;;;;;4.70;1.13;;;;;;;24.65;57.29;96247.41;5091841;28;20423;-70
2023/08/01 10:50:39;;;;;;;1.00;0.63;;;;;;;24.79;56.66;96253.91;5092282;28;20205;-69
2023/08/01 10:53:06;;;;;;;3.13;0.80;;;;;;;24.85;56.56;96252.03;5090545;28;20428;-70
2023/08/01 10:55:46;;;;;;;1.00;0.70;;;;;;;24.77;55.97;96260.59;5085905;28;20209;-70
2023/08/01 10:58:11;;;;;;;1.03;0.60;;;;;;;24.84;54.92;96261.94;5084926;28;20471;-71
2023/08/01 11:00:37;;;;;;;1.03;0.77;;;;;;;25.14;54.92;96272.94;5085639;28;20439;-68
2023/08/01 11:03:03;;;;;;;1.30;0.70;;;;;;;25.31;50.59;96267.28;5085197;28;20190;-68
2023/08/01 11:05:29;;;;;;;1.30;0.80;;;;;;;25.42;50.05;96281.53;5090201;28;20209;-68
2023/08/01 11:08:02;;;;;;;2.07;0.73;;;;;;;25.67;49.00;96272.59;5082114;28;20185;-68
2023/08/01 11:10:30;;;;;;;1.50;0.90;;;;;;;25.86;47.17;96286.22;5080760;28;20455;-71
2023/08/01 11:12:55;;;;;;;1.30;0.87;;;;;;;26.03;46.36;96274.38;5085610;28;20522;-69
2023/08/01 11:15:21;;;;;;;1.20;0.90;;;;;;;26.17;45.25;96288.84;5082442;28;20531;-69
2023/08/01 11:17:51;;;;;;;1.00;0.83;;;;;;;26.37;44.36;96292.50;5084478;28;20585;-69
2023/08/01 11:20:18;;;;;;;1.10;0.80;;;;;;;26.50;43.88;96286.53;5086509;28;20178;-71
2023/08/01 11:22:52;;;;;;;1.67;1.00;;;;;;;26.70;43.99;96287.50;5082605;28;20455;-69
2023/08/01 11:25:18;;;;;;;1.20;0.80;;;;;;;26.85;42.94;96285.78;5080637;28;20450;-68
2023/08/01 11:27:44;;;;;;;1.30;0.87;;;;;;;26.77;42.11;96292.56;5089820;28;20518;-69